createdAt,value
2022-08-18T00:01:07.961Z,24.73
2022-08-18T00:03:57.428Z,27.75
2022-08-18T00:06:24.065Z,26.00
2022-08-18T00:08:58.726Z,26.48
2022-08-18T00:11:27.431Z,25.75
2022-08-18T00:13:55.545Z,26.13
2022-08-18T00:16:23.591Z,26.27
2022-08-18T00:18:51.639Z,26.23
2022-08-18T00:21:20.745Z,28.25
2022-08-18T00:23:48.760Z,29.00
2022-08-18T00:26:18.244Z,28.13
2022-08-18T00:28:46.244Z,26.98
2022-08-18T00:31:14.287Z,28.73
2022-08-18T00:33:43.671Z,28.95
2022-08-18T00:36:12.273Z,29.88
2022-08-18T00:38:40.854Z,29.48
2022-08-18T00:41:09.417Z,32.20
2022-08-18T00:43:45.100Z,30.33
2022-08-18T00:46:18.090Z,29.75
2022-08-18T00:48:48.679Z,29.88
2022-08-18T00:51:22.441Z,29.10
2022-08-18T00:53:55.350Z,31.10
2022-08-18T00:56:26.895Z,30.02
2022-08-18T00:59:02.161Z,29.90
2022-08-18T01:01:34.211Z,36.92
2022-08-18T01:04:10.922Z,33.75
2022-08-18T01:06:43.594Z,36.47
2022-08-18T01:09:11.986Z,31.85
2022-08-18T01:11:41.465Z,37.17
2022-08-18T01:14:11.686Z,34.03
2022-08-18T01:16:59.352Z,36.08
2022-08-18T01:19:46.380Z,36.63
2022-08-18T01:22:22.558Z,39.20
2022-08-18T01:25:10.764Z,37.25
2022-08-18T01:27:41.661Z,36.83
2022-08-18T01:30:13.515Z,36.30
2022-08-18T01:32:42.939Z,35.90
2022-08-18T01:35:12.898Z,37.60
2022-08-18T01:37:41.445Z,37.40
2022-08-18T01:41:17.227Z,37.22
2022-08-18T01:43:05.413Z,38.47
2022-08-18T01:45:34.618Z,36.90
2022-08-18T01:48:04.926Z,44.70
2022-08-18T01:50:34.284Z,41.85
2022-08-18T01:53:04.486Z,43.40
2022-08-18T01:55:34.868Z,45.30
2022-08-18T01:58:02.962Z,45.42
2022-08-18T02:00:32.311Z,41.95
2022-08-18T02:03:02.540Z,42.88
2022-08-18T02:05:35.207Z,42.42
2022-08-18T02:08:03.648Z,45.00
2022-08-18T02:10:33.271Z,46.25
2022-08-18T02:13:01.372Z,48.92
2022-08-18T02:15:29.361Z,54.33
2022-08-18T02:17:58.700Z,58.80
2022-08-18T02:20:26.912Z,58.90
2022-08-18T02:22:55.152Z,57.05
2022-08-18T02:25:23.295Z,52.33
2022-08-18T02:27:53.335Z,54.95
2022-08-18T02:30:21.667Z,61.83
2022-08-18T02:32:49.933Z,68.90
2022-08-18T02:35:18.025Z,63.53
2022-08-18T02:37:48.077Z,64.88
2022-08-18T02:40:17.170Z,75.55
2022-08-18T02:42:45.829Z,67.75
2022-08-18T02:45:15.797Z,63.78
2022-08-18T02:47:45.036Z,54.33
2022-08-18T02:50:13.756Z,52.83
2022-08-18T02:52:41.873Z,56.97
2022-08-18T02:55:11.749Z,53.22
2022-08-18T02:57:43.491Z,55.20
2022-08-18T03:00:14.426Z,50.55
2022-08-18T03:02:47.455Z,49.25
2022-08-18T03:05:15.664Z,49.95
2022-08-18T03:07:43.741Z,46.03
2022-08-18T03:10:32.403Z,46.10
2022-08-18T03:13:02.257Z,44.75
2022-08-18T03:15:30.257Z,50.10
2022-08-18T03:18:01.212Z,66.68
2022-08-18T03:20:30.347Z,70.65
2022-08-18T03:22:58.709Z,74.10
2022-08-18T03:25:26.763Z,67.43
2022-08-18T03:27:54.803Z,72.63
2022-08-18T03:30:23.640Z,63.42
2022-08-18T03:32:52.242Z,72.85
2022-08-18T03:35:21.688Z,88.45
2022-08-18T03:37:49.772Z,75.60
2022-08-18T03:40:18.068Z,71.20
2022-08-18T03:42:46.129Z,87.68
2022-08-18T03:45:17.469Z,95.15
2022-08-18T03:47:46.496Z,91.75
2022-08-18T03:50:14.741Z,87.85
2022-08-18T03:52:45.804Z,98.82
2022-08-18T03:55:13.817Z,87.03
2022-08-18T03:57:41.834Z,76.82
2022-08-18T04:00:12.065Z,73.72
2022-08-18T04:02:40.107Z,68.10
2022-08-18T04:05:10.175Z,70.47
2022-08-18T04:07:38.206Z,68.63
2022-08-18T04:10:19.238Z,71.90
2022-08-18T04:12:47.943Z,72.72
2022-08-18T04:15:16.768Z,71.95
2022-08-18T04:18:06.213Z,69.07
2022-08-18T04:20:34.209Z,60.80
2022-08-18T04:23:03.242Z,62.15
2022-08-18T04:25:33.471Z,67.63
2022-08-18T04:28:03.518Z,67.15
2022-08-18T04:30:31.743Z,64.18
2022-08-18T04:33:01.870Z,80.25
2022-08-18T04:35:31.265Z,79.35
2022-08-18T04:37:59.310Z,82.78
2022-08-18T04:40:27.996Z,78.68
2022-08-18T04:42:57.423Z,77.97
2022-08-18T04:45:25.455Z,73.65
2022-08-18T04:47:53.752Z,79.57
2022-08-18T04:50:21.878Z,76.85
2022-08-18T04:53:07.488Z,84.85
2022-08-18T04:55:35.551Z,75.53
2022-08-18T04:58:05.008Z,75.25
2022-08-18T05:00:32.986Z,69.15
2022-08-18T05:03:00.986Z,66.88
2022-08-18T05:05:28.986Z,62.70
2022-08-18T05:07:58.089Z,71.15
2022-08-18T05:10:26.113Z,69.82
2022-08-18T05:12:54.189Z,68.68
2022-08-18T05:15:23.542Z,77.03
2022-08-18T05:17:51.633Z,81.70
2022-08-18T05:20:20.884Z,77.88
2022-08-18T05:22:49.324Z,78.60
2022-08-18T05:25:17.478Z,71.63
2022-08-18T05:27:45.593Z,76.47
2022-08-18T05:30:16.795Z,74.32
2022-08-18T05:32:49.896Z,73.10
2022-08-18T05:35:23.140Z,76.43
2022-08-18T05:38:13.892Z,78.07
2022-08-18T05:40:42.796Z,75.55
2022-08-18T05:43:12.172Z,80.22
2022-08-18T05:45:41.956Z,75.88
2022-08-18T05:48:11.372Z,82.53
2022-08-18T05:50:39.436Z,73.75
2022-08-18T05:53:13.481Z,73.88
2022-08-18T05:56:05.215Z,81.57
2022-08-18T05:58:37.892Z,82.60
2022-08-18T06:01:13.154Z,93.70
2022-08-18T06:03:47.738Z,91.38
2022-08-18T06:06:20.868Z,87.53
2022-08-18T06:08:57.382Z,76.10
2022-08-18T06:11:25.873Z,72.35
2022-08-18T06:13:59.140Z,89.43
2022-08-18T06:16:44.516Z,79.05
2022-08-18T06:19:28.040Z,85.10
2022-08-18T06:22:04.618Z,83.65
2022-08-18T06:24:38.825Z,75.10
2022-08-18T06:27:21.893Z,82.90
2022-08-18T06:30:04.573Z,77.40
2022-08-18T06:32:47.693Z,77.43
2022-08-18T06:35:25.537Z,79.07
2022-08-18T06:38:17.862Z,73.32
2022-08-18T06:40:48.481Z,77.03
2022-08-18T06:43:18.157Z,77.38
2022-08-18T06:45:52.179Z,85.25
2022-08-18T06:49:03.736Z,73.65
2022-08-18T06:51:36.253Z,76.88
2022-08-18T06:54:08.764Z,73.35
2022-08-18T06:56:49.302Z,72.40
2022-08-18T06:59:24.192Z,74.45
2022-08-18T07:01:55.871Z,72.00
2022-08-18T07:04:42.794Z,74.78
2022-08-18T07:07:18.384Z,77.82
2022-08-18T07:09:47.412Z,71.53
2022-08-18T07:12:22.998Z,72.93
2022-08-18T07:14:52.895Z,79.00
2022-08-18T07:17:42.840Z,76.22
2022-08-18T07:20:21.046Z,77.00
2022-08-18T07:23:00.290Z,81.95
2022-08-18T07:25:38.802Z,81.85
2022-08-18T07:28:07.185Z,79.72
2022-08-18T07:30:37.240Z,85.28
2022-08-18T07:33:14.896Z,89.18
2022-08-18T07:35:49.229Z,81.15
2022-08-18T07:38:43.770Z,85.28
2022-08-18T07:41:16.658Z,84.82
2022-08-18T07:43:54.480Z,82.72
2022-08-18T07:46:29.634Z,83.55
2022-08-18T07:48:59.475Z,80.70
2022-08-18T07:51:45.536Z,77.63
2022-08-18T07:54:47.781Z,78.13
2022-08-18T07:57:20.375Z,77.30
2022-08-18T07:59:55.052Z,77.70
2022-08-18T08:02:35.986Z,79.65
2022-08-18T08:05:16.110Z,83.55
2022-08-18T08:07:50.759Z,87.20
2022-08-18T08:10:31.334Z,83.70
2022-08-18T08:13:09.861Z,86.90
2022-08-18T08:15:46.873Z,88.55
2022-08-18T08:18:22.781Z,82.10
2022-08-18T08:20:54.946Z,83.45
2022-08-18T08:23:30.349Z,78.68
2022-08-18T08:26:24.669Z,74.85
2022-08-18T08:29:08.756Z,72.95
2022-08-18T08:31:44.474Z,72.85
2022-08-18T08:34:17.723Z,72.20
2022-08-18T08:36:48.082Z,70.72
2022-08-18T08:39:21.614Z,67.22
2022-08-18T08:42:29.808Z,68.68
2022-08-18T08:44:59.223Z,55.83
2022-08-18T08:47:33.162Z,55.75
2022-08-18T08:50:04.571Z,55.17
2022-08-18T08:52:39.372Z,55.05
2022-08-18T08:55:12.160Z,61.88
2022-08-18T08:57:51.439Z,56.33
2022-08-18T09:00:21.203Z,54.33
2022-08-18T09:03:03.161Z,51.25
2022-08-18T09:05:37.043Z,47.42
2022-08-18T09:08:32.778Z,51.28
2022-08-18T09:11:50.008Z,50.80
2022-08-18T09:14:48.257Z,48.00
2022-08-18T09:17:51.871Z,48.28
2022-08-18T09:20:40.572Z,50.67
2022-08-18T09:23:11.935Z,48.30
2022-08-18T09:25:50.539Z,49.63
2022-08-18T09:28:20.828Z,48.17
2022-08-18T09:31:15.007Z,48.30
2022-08-18T09:34:10.849Z,49.88
2022-08-18T09:36:54.775Z,49.20
2022-08-18T09:39:54.625Z,46.15
2022-08-18T09:42:33.881Z,40.15
2022-08-18T09:45:53.000Z,36.67
2022-08-18T09:48:31.867Z,35.38
2022-08-18T09:51:41.999Z,36.70
2022-08-18T09:54:15.151Z,34.05
2022-08-18T09:57:24.483Z,34.58
2022-08-18T10:00:16.743Z,37.17
2022-08-18T10:03:13.806Z,32.75
2022-08-18T10:05:59.441Z,32.05
2022-08-18T10:09:17.719Z,34.25
2022-08-18T10:12:09.856Z,29.48
2022-08-18T10:14:59.510Z,27.10
2022-08-18T10:17:45.735Z,27.77
2022-08-18T10:20:27.797Z,26.85
2022-08-18T10:22:57.990Z,33.65
2022-08-18T10:25:36.322Z,33.83
2022-08-18T10:28:05.819Z,30.25
2022-08-18T10:34:16.941Z,32.67
2022-08-18T10:36:52.369Z,42.10
2022-08-18T10:39:24.254Z,42.15
2022-08-18T10:42:04.891Z,45.15
2022-08-18T10:44:43.107Z,46.38
2022-08-18T10:47:24.975Z,45.47
2022-08-18T10:50:03.693Z,45.28
2022-08-18T10:52:51.473Z,42.97
2022-08-18T10:59:07.342Z,36.45
2022-08-18T11:02:07.717Z,32.85
2022-08-18T11:04:42.392Z,35.53
2022-08-18T11:07:14.595Z,36.60
2022-08-18T11:09:57.085Z,35.50
2022-08-18T11:12:53.009Z,34.47
2022-08-18T11:15:25.520Z,30.90
2022-08-18T11:18:03.190Z,23.45
2022-08-18T11:20:33.707Z,24.05
2022-08-18T11:23:03.565Z,25.88
2022-08-18T11:25:33.768Z,23.75
2022-08-18T11:28:04.151Z,25.50
2022-08-18T11:30:36.940Z,25.77
2022-08-18T11:33:07.203Z,23.42
2022-08-18T11:35:47.526Z,22.60
2022-08-18T11:38:23.305Z,23.50
2022-08-18T11:41:17.294Z,23.40
2022-08-18T11:43:48.400Z,22.63
2022-08-18T11:46:30.274Z,21.40
2022-08-18T11:49:01.347Z,19.48
2022-08-18T11:54:23.276Z,21.33
2022-08-18T11:56:53.122Z,20.77
2022-08-18T11:59:54.887Z,21.02
2022-08-18T12:02:26.309Z,21.75
2022-08-18T12:05:03.197Z,22.73
2022-08-18T12:07:37.848Z,22.90
2022-08-18T12:10:23.757Z,23.83
2022-08-18T12:15:49.121Z,23.25
2022-08-18T12:18:28.777Z,23.77
2022-08-18T12:20:58.926Z,21.42
2022-08-18T12:23:27.998Z,35.72
2022-08-18T12:26:26.790Z,41.75
2022-08-18T12:29:01.122Z,46.72
2022-08-18T12:31:41.993Z,54.80
2022-08-18T12:34:16.168Z,55.20
2022-08-18T12:36:46.583Z,60.50
2022-08-18T12:39:14.623Z,56.53
2022-08-18T12:41:42.983Z,54.17
2022-08-18T12:44:13.011Z,68.55
2022-08-18T12:46:44.030Z,65.40
2022-08-18T12:49:16.701Z,64.88
2022-08-18T12:51:45.070Z,65.55
2022-08-18T12:54:18.490Z,62.05
2022-08-18T12:56:51.322Z,62.70
2022-08-18T12:59:19.840Z,66.45
2022-08-18T13:01:49.279Z,66.82
2022-08-18T13:04:18.741Z,63.40
2022-08-18T13:07:00.198Z,62.25
2022-08-18T13:09:42.983Z,62.22
2022-08-18T13:12:19.652Z,55.47
2022-08-18T13:14:49.844Z,43.40
2022-08-18T13:17:29.452Z,48.15
2022-08-18T13:20:03.980Z,45.88
2022-08-18T13:22:33.334Z,43.00
2022-08-18T13:25:03.927Z,45.63
2022-08-18T13:27:33.081Z,48.13
2022-08-18T13:30:03.826Z,44.72
2022-08-18T13:32:59.494Z,28.92
2022-08-18T13:35:29.972Z,19.20
2022-08-18T13:38:12.339Z,17.45
2022-08-18T13:40:46.913Z,19.27
2022-08-18T13:43:16.144Z,19.73
2022-08-18T13:45:53.221Z,18.48
2022-08-18T13:48:26.010Z,19.73
2022-08-18T13:50:56.597Z,20.35
2022-08-18T13:53:27.445Z,21.00
2022-08-18T13:55:58.505Z,20.00
2022-08-18T13:58:27.626Z,20.35
2022-08-18T14:01:22.687Z,18.90
2022-08-18T14:03:50.054Z,16.65
2022-08-18T14:06:22.878Z,19.05
2022-08-18T14:08:52.611Z,18.92
2022-08-18T14:11:32.940Z,17.20
2022-08-18T14:14:02.458Z,21.73
2022-08-18T14:16:31.236Z,19.52
2022-08-18T14:19:18.624Z,19.60
2022-08-18T14:22:11.155Z,18.67
2022-08-18T14:24:59.183Z,18.20
2022-08-18T14:27:35.319Z,18.08
2022-08-18T14:30:06.689Z,19.20
2022-08-18T14:32:36.351Z,18.20
2022-08-18T14:35:33.119Z,21.27
2022-08-18T14:37:56.818Z,17.85
2022-08-18T14:40:25.191Z,18.27
2022-08-18T14:42:54.246Z,16.05
2022-08-18T14:45:31.810Z,23.42
2022-08-18T14:48:06.526Z,25.90
2022-08-18T14:50:37.424Z,35.90
2022-08-18T14:53:07.077Z,22.40
2022-08-18T14:55:35.988Z,19.50
2022-08-18T14:58:07.086Z,19.73
2022-08-18T15:00:49.770Z,18.85
2022-08-18T15:03:21.480Z,26.02
2022-08-18T15:05:58.178Z,19.92
2022-08-18T15:08:27.759Z,21.60
2022-08-18T15:10:57.204Z,18.92
2022-08-18T15:13:26.563Z,20.65
2022-08-18T15:16:01.863Z,18.50
2022-08-18T15:18:31.427Z,18.27
2022-08-18T15:21:34.896Z,18.38
2022-08-18T15:24:24.538Z,20.90
2022-08-18T15:26:57.976Z,18.52
2022-08-18T15:29:31.805Z,19.88
2022-08-18T15:32:10.121Z,20.00
2022-08-18T15:34:45.992Z,22.05
2022-08-18T15:37:19.470Z,23.13
2022-08-18T15:39:47.924Z,23.00
2022-08-18T15:42:20.770Z,21.33
2022-08-18T15:44:48.843Z,21.52
2022-08-18T15:47:21.253Z,24.13
2022-08-18T15:49:49.499Z,21.77
2022-08-18T15:52:20.482Z,23.65
2022-08-18T15:54:53.115Z,21.95
2022-08-18T15:57:39.740Z,20.60
2022-08-18T16:00:12.182Z,24.80
2022-08-18T16:02:48.341Z,24.38
2022-08-18T16:05:17.213Z,23.13
2022-08-18T16:07:47.683Z,28.10
2022-08-18T16:10:17.992Z,25.95
2022-08-18T16:12:46.487Z,22.95
2022-08-18T16:15:19.476Z,26.88
2022-08-18T16:17:48.288Z,27.40
2022-08-18T16:20:18.618Z,25.10
2022-08-18T16:22:48.822Z,23.67
2022-08-18T16:25:17.547Z,25.55
2022-08-18T16:27:47.756Z,32.38
2022-08-18T16:30:20.722Z,26.25
2022-08-18T16:32:48.885Z,28.30
2022-08-18T16:35:18.699Z,28.98
2022-08-18T16:37:49.178Z,29.02
2022-08-18T16:40:18.577Z,28.67
2022-08-18T16:42:46.900Z,28.98
2022-08-18T16:45:15.987Z,28.70
2022-08-18T16:47:44.071Z,30.88
2022-08-18T16:50:14.845Z,28.08
2022-08-18T16:52:43.536Z,29.92
2022-08-18T16:55:13.837Z,30.90
2022-08-18T16:58:01.179Z,31.60
2022-08-18T17:00:54.652Z,27.95
2022-08-18T17:03:46.395Z,28.48
2022-08-18T17:06:17.087Z,29.90
2022-08-18T17:08:45.659Z,29.65
2022-08-18T17:11:16.953Z,29.05
2022-08-18T17:13:46.148Z,28.55
2022-08-18T17:16:15.955Z,28.75
2022-08-18T17:18:44.659Z,28.80
2022-08-18T17:21:15.107Z,34.90
2022-08-18T17:23:43.666Z,30.65
2022-08-18T17:26:18.259Z,33.08
2022-08-18T17:28:52.693Z,33.85
2022-08-18T17:31:24.355Z,39.25
2022-08-18T17:33:54.431Z,35.20
2022-08-18T17:36:29.214Z,34.17
2022-08-18T17:39:00.586Z,36.05
2022-08-18T17:41:30.074Z,37.47
2022-08-18T17:44:01.903Z,41.67
2022-08-18T17:46:39.281Z,38.78
2022-08-18T17:49:13.966Z,38.85
2022-08-18T17:51:45.782Z,44.08
2022-08-18T17:54:27.544Z,38.75
2022-08-18T17:57:01.791Z,38.65
2022-08-18T17:59:46.517Z,39.22
2022-08-18T18:02:29.460Z,41.22
2022-08-18T18:04:59.063Z,37.40
2022-08-18T18:07:29.753Z,39.65
2022-08-18T18:10:01.918Z,42.83
2022-08-18T18:12:34.338Z,39.65
2022-08-18T18:15:04.790Z,40.67
2022-08-18T18:17:37.822Z,42.05
2022-08-18T18:20:17.026Z,40.38
2022-08-18T18:22:46.081Z,41.40
2022-08-18T18:25:30.168Z,38.25
2022-08-18T18:28:04.627Z,38.60
2022-08-18T18:30:33.461Z,38.95
2022-08-18T18:33:04.446Z,34.30
2022-08-18T18:35:53.344Z,33.85
2022-08-18T18:38:29.753Z,34.60
2022-08-18T18:41:00.628Z,32.40
2022-08-18T18:43:36.991Z,34.63
2022-08-18T18:46:29.910Z,32.72
2022-08-18T18:49:09.445Z,30.92
2022-08-18T18:51:44.005Z,28.63
2022-08-18T18:54:26.667Z,30.02
2022-08-18T18:56:57.408Z,32.90
2022-08-18T18:59:39.204Z,32.63
2022-08-18T19:02:33.141Z,29.02
2022-08-18T19:05:13.070Z,31.38
2022-08-18T19:07:59.843Z,29.63
2022-08-18T19:10:34.587Z,30.10
2022-08-18T19:13:05.721Z,27.38
2022-08-18T19:15:38.396Z,30.85
2022-08-18T19:18:25.466Z,29.50
2022-08-18T19:21:49.313Z,28.85
2022-08-18T19:23:49.867Z,28.20
2022-08-18T19:26:27.033Z,26.80
2022-08-18T19:29:12.560Z,24.58
2022-08-18T19:31:46.626Z,25.45
2022-08-18T19:34:18.531Z,27.55
2022-08-18T19:36:55.461Z,26.92
2022-08-18T19:39:31.275Z,27.27
2022-08-18T19:42:02.234Z,27.83
2022-08-18T19:44:37.482Z,27.33
2022-08-18T19:47:15.779Z,26.27
2022-08-18T19:49:54.170Z,27.58
2022-08-18T19:52:47.297Z,28.30
2022-08-18T19:55:28.148Z,25.38
2022-08-18T19:58:21.742Z,26.25
2022-08-18T20:00:56.360Z,24.85
2022-08-18T20:03:39.998Z,27.98
2022-08-18T20:06:35.188Z,26.70
2022-08-18T20:09:25.989Z,26.77
2022-08-18T20:12:22.967Z,25.75
2022-08-18T20:15:01.919Z,23.73
2022-08-18T20:17:29.976Z,28.13
2022-08-18T20:20:18.527Z,23.95
2022-08-18T20:22:48.756Z,23.70
2022-08-18T20:25:42.550Z,24.58
2022-08-18T20:28:45.914Z,24.48
2022-08-18T20:31:17.218Z,28.05
2022-08-18T20:34:03.927Z,26.77
2022-08-18T20:36:36.927Z,24.10
2022-08-18T20:39:37.638Z,26.35
2022-08-18T20:42:08.793Z,27.23
2022-08-18T20:44:58.671Z,27.70
2022-08-18T20:47:39.818Z,26.60
2022-08-18T20:50:40.395Z,28.25
2022-08-18T20:53:22.456Z,27.67
2022-08-18T20:55:58.249Z,29.67
2022-08-18T20:58:32.522Z,30.65
2022-08-18T21:01:01.932Z,31.70
2022-08-18T21:03:38.294Z,28.60
2022-08-18T21:06:08.152Z,31.90
2022-08-18T21:08:39.826Z,31.98
2022-08-18T21:11:11.153Z,34.42
2022-08-18T21:13:51.370Z,33.50
2022-08-18T21:16:38.583Z,32.28
2022-08-18T21:19:14.462Z,32.33
2022-08-18T21:21:46.776Z,34.90
2022-08-18T21:24:28.991Z,34.47
2022-08-18T21:27:00.355Z,33.70
2022-08-18T21:29:34.489Z,33.45
2022-08-18T21:32:19.983Z,34.47
2022-08-18T21:34:48.045Z,32.08
2022-08-18T21:37:18.223Z,33.88
2022-08-18T21:39:54.366Z,32.80
2022-08-18T21:42:27.908Z,30.63
2022-08-18T21:44:57.345Z,35.08
2022-08-18T21:47:31.820Z,32.50
2022-08-18T21:50:09.378Z,34.80
2022-08-18T21:52:40.801Z,34.35
2022-08-18T21:55:18.223Z,29.38
2022-08-18T21:58:00.884Z,31.65
2022-08-18T22:00:31.288Z,31.67
2022-08-18T22:03:20.497Z,30.65
2022-08-18T22:05:59.446Z,30.83
2022-08-18T22:08:30.903Z,29.88
2022-08-18T22:12:01.380Z,29.20
2022-08-18T22:14:54.079Z,26.77
2022-08-18T22:17:33.595Z,29.05
2022-08-18T22:20:33.523Z,27.98
2022-08-18T22:23:23.846Z,27.13
2022-08-18T22:25:52.066Z,26.50
2022-08-18T22:28:27.262Z,26.95
2022-08-18T22:30:55.547Z,26.13
2022-08-18T22:33:23.881Z,27.75
2022-08-18T22:35:55.253Z,25.67
2022-08-18T22:38:23.475Z,23.25
2022-08-18T22:40:51.562Z,25.80
2022-08-18T22:43:19.757Z,24.45
2022-08-18T22:45:49.179Z,25.05
2022-08-18T22:48:17.286Z,26.42
2022-08-18T22:50:46.290Z,25.08
2022-08-18T22:53:15.594Z,22.98
2022-08-18T22:55:44.053Z,24.08
2022-08-18T22:58:13.400Z,25.40
2022-08-18T23:00:45.599Z,22.10
2022-08-18T23:03:15.171Z,23.92
2022-08-18T23:05:43.224Z,28.17
2022-08-18T23:08:11.282Z,27.00
2022-08-18T23:10:39.319Z,25.33
2022-08-18T23:13:07.360Z,27.00
2022-08-18T23:15:46.975Z,23.00
2022-08-18T23:18:19.549Z,23.17
2022-08-18T23:20:49.487Z,27.13
2022-08-18T23:23:18.405Z,24.98
2022-08-18T23:25:47.671Z,24.75
2022-08-18T23:28:15.754Z,22.02
2022-08-18T23:30:44.818Z,24.17
2022-08-18T23:33:13.699Z,21.65
2022-08-18T23:35:44.346Z,21.15
2022-08-18T23:38:15.665Z,21.80
2022-08-18T23:40:46.295Z,21.52
2022-08-18T23:43:15.261Z,16.65
2022-08-18T23:45:47.890Z,17.55
2022-08-18T23:48:17.874Z,18.42
2022-08-18T23:50:48.394Z,17.63
2022-08-18T23:53:16.785Z,16.77
2022-08-18T23:55:44.967Z,19.02
2022-08-18T23:58:13.036Z,17.73
